Time;durP1;ratioP1;P1;durP2;ratioP2;P2;SDS_P1;SDS_P2;PMS_P1;PMS_P2;Temp;Humidity;BMP_temperature;BMP_pressure;BME280_temperature;BME280_humidity;BME280_pressure;Samples;Min_cycle;Max_cycle;Signal;HPM_P1;HPM_P2
2023/11/06 00:00:59;;;;;;;1.57;0.73;;;;;;;10.64;100.00;98689.25;6040507;29;20254;-70
2023/11/06 00:04:21;;;;;;;4.00;1.57;;;;;;;10.64;100.00;98719.72;6034498;29;20660;-70
2023/11/06 00:07:43;;;;;;;1.60;1.50;;;;;;;10.58;100.00;98714.25;6039208;29;20631;-70
2023/11/06 00:11:05;;;;;;;1.23;1.10;;;;;;;10.48;100.00;98719.94;6041756;29;20238;-71
2023/11/06 00:14:26;;;;;;;1.70;1.13;;;;;;;10.39;100.00;98734.53;6032865;29;20321;-71
2023/11/06 00:17:47;;;;;;;8.07;2.23;;;;;;;10.34;100.00;98736.97;6037041;29;20230;-74
2023/11/06 00:21:14;;;;;;;1.57;1.17;;;;;;;10.32;100.00;98752.47;6035296;29;20226;-73
2023/11/06 00:24:36;;;;;;;3.40;1.77;;;;;;;10.29;100.00;98759.06;6048747;29;20260;-72
2023/11/06 00:27:57;;;;;;;10.60;2.27;;;;;;;10.27;100.00;98766.50;6043906;29;20238;-72
2023/11/06 00:31:18;;;;;;;3.00;1.73;;;;;;;10.32;100.00;98765.94;6042527;29;20230;-72
2023/11/06 00:34:39;;;;;;;4.67;2.07;;;;;;;10.31;100.00;98780.41;6040703;29;20614;-71
2023/11/06 00:38:01;;;;;;;3.10;1.80;;;;;;;10.33;100.00;98776.50;6043695;29;20246;-71
2023/11/06 00:41:22;;;;;;;3.73;2.43;;;;;;;10.32;100.00;98796.41;6054223;29;20233;-72
2023/11/06 00:44:43;;;;;;;6.00;1.87;;;;;;;10.35;100.00;98789.78;6043345;29;20241;-71
2023/11/06 00:48:06;;;;;;;3.20;2.07;;;;;;;10.38;100.00;98805.59;6034151;29;20827;-72
2023/11/06 00:51:27;;;;;;;4.97;2.33;;;;;;;10.40;100.00;98796.31;6044458;29;20237;-71
2023/11/06 00:54:50;;;;;;;7.10;1.87;;;;;;;10.45;100.00;98817.31;6046093;29;20328;-70
2023/11/06 00:58:11;;;;;;;7.90;1.90;;;;;;;10.42;100.00;98817.66;6051503;29;20245;-70
2023/11/06 01:01:32;;;;;;;9.73;2.73;;;;;;;10.42;100.00;98809.56;6037899;29;20342;-73
2023/11/06 01:04:52;;;;;;;1.97;1.80;;;;;;;10.41;100.00;98815.97;6047347;29;20691;-71
2023/11/06 01:08:14;;;;;;;5.37;2.20;;;;;;;10.43;100.00;98827.41;6045107;29;20237;-71
2023/11/06 01:11:36;;;;;;;3.63;2.03;;;;;;;10.43;100.00;98830.09;6043205;29;20599;-71
2023/11/06 01:14:57;;;;;;;7.03;1.73;;;;;;;10.45;100.00;98830.78;6042927;29;20242;-73
2023/11/06 01:18:18;;;;;;;3.43;2.33;;;;;;;10.40;100.00;98847.47;6043836;29;20238;-71
2023/11/06 01:21:39;;;;;;;2.03;1.50;;;;;;;10.43;100.00;98847.09;6039755;29;20226;-71
2023/11/06 01:25:00;;;;;;;1.90;1.43;;;;;;;10.45;100.00;98879.25;6043541;29;20325;-71
2023/11/06 01:28:22;;;;;;;6.17;2.90;;;;;;;10.49;100.00;98871.63;6052609;29;20302;-71
2023/11/06 01:31:43;;;;;;;3.60;1.90;;;;;;;10.47;100.00;98877.22;6038864;29;20608;-71
2023/11/06 01:35:05;;;;;;;2.53;1.90;;;;;;;10.44;100.00;98870.31;6049248;29;20588;-71
2023/11/06 01:38:26;;;;;;;9.20;2.43;;;;;;;10.43;100.00;98876.72;6038241;29;20234;-71
2023/11/06 01:41:47;;;;;;;6.27;1.70;;;;;;;10.40;100.00;98895.13;6043068;29;20312;-72
2023/11/06 01:45:10;;;;;;;1.53;1.30;;;;;;;10.41;100.00;98902.16;6045369;29;20316;-72
2023/11/06 01:48:31;;;;;;;2.40;1.97;;;;;;;10.34;100.00;98896.69;6020876;29;20241;-71
2023/11/06 01:51:53;;;;;;;2.30;1.83;;;;;;;10.30;100.00;98916.09;6037742;29;20253;-71
2023/11/06 01:55:14;;;;;;;2.43;2.07;;;;;;;10.29;100.00;98906.31;6040115;29;20238;-71
2023/11/06 01:58:35;;;;;;;2.63;2.13;;;;;;;10.29;100.00;98925.19;6042834;29;20607;-72
2023/11/06 02:02:04;;;;;;;5.90;2.30;;;;;;;10.25;100.00;98943.56;6037157;29;20234;-71
2023/11/06 02:05:25;;;;;;;2.30;2.07;;;;;;;10.22;100.00;98951.19;6036171;29;20237;-71
2023/11/06 02:08:46;;;;;;;10.80;2.43;;;;;;;10.20;100.00;98950.53;6038541;29;20238;-71
2023/11/06 02:12:09;;;;;;;4.00;2.30;;;;;;;10.11;100.00;98956.97;6044693;29;20234;-72
2023/11/06 02:15:30;;;;;;;4.50;2.10;;;;;;;10.12;100.00;98956.78;6033092;29;20787;-71
2023/11/06 02:18:52;;;;;;;4.57;2.30;;;;;;;10.12;100.00;98969.41;6049913;29;20238;-72
2023/11/06 02:22:17;;;;;;;2.90;2.27;;;;;;;10.10;100.00;98972.28;6039501;29;20305;-70
2023/11/06 02:25:39;;;;;;;4.20;2.20;;;;;;;10.10;100.00;98966.91;6037415;29;20238;-71
2023/11/06 02:29:00;;;;;;;10.07;2.77;;;;;;;10.11;100.00;98983.91;6052282;29;20241;-70
2023/11/06 02:32:21;;;;;;;2.20;1.53;;;;;;;10.08;100.00;98981.53;6035078;29;20798;-71
2023/11/06 02:35:42;;;;;;;4.20;2.23;;;;;;;10.07;100.00;98979.88;6044532;29;20248;-71
2023/11/06 02:39:03;;;;;;;6.73;2.83;;;;;;;10.01;100.00;98994.84;6052580;29;20246;-70
2023/11/06 02:42:25;;;;;;;2.33;2.07;;;;;;;10.04;100.00;98993.66;6041797;29;20241;-71
2023/11/06 02:45:46;;;;;;;2.60;1.73;;;;;;;10.05;100.00;99009.66;6039365;29;20230;-70
2023/11/06 02:49:07;;;;;;;8.97;2.90;;;;;;;10.07;100.00;99017.56;6051213;29;20242;-71
2023/11/06 02:52:28;;;;;;;10.80;2.63;;;;;;;10.04;100.00;99007.97;6030692;29;20246;-71
2023/11/06 02:55:49;;;;;;;2.77;2.53;;;;;;;10.03;100.00;99010.84;6037985;29;20238;-71
2023/11/06 02:59:11;;;;;;;3.97;2.27;;;;;;;10.10;100.00;99031.53;6042918;29;20674;-71
2023/11/06 03:02:32;;;;;;;10.00;2.93;;;;;;;10.14;100.00;99021.22;6049270;29;20290;-72
2023/11/06 03:05:53;;;;;;;3.87;1.93;;;;;;;10.11;100.00;99043.97;6039929;29;20237;-72
2023/11/06 03:09:15;;;;;;;4.43;2.73;;;;;;;10.10;100.00;99038.72;6040642;29;20246;-72
2023/11/06 03:12:36;;;;;;;2.97;2.50;;;;;;;10.06;100.00;99045.47;6039831;29;20242;-72
2023/11/06 03:15:58;;;;;;;2.43;2.23;;;;;;;10.04;100.00;99067.19;6049391;29;20241;-72
2023/11/06 03:19:19;;;;;;;7.37;2.97;;;;;;;10.04;100.00;99063.66;6041210;29;20237;-71
2023/11/06 03:22:40;;;;;;;4.70;2.87;;;;;;;10.01;100.00;99082.88;6040585;29;20225;-70
2023/11/06 03:26:01;;;;;;;3.07;2.23;;;;;;;9.90;100.00;99080.56;6040929;29;20612;-71
2023/11/06 03:29:22;;;;;;;3.37;2.33;;;;;;;9.82;100.00;99094.91;6046355;29;20332;-72
2023/11/06 03:32:47;;;;;;;4.80;1.90;;;;;;;9.81;100.00;99111.22;6038885;29;20544;-71
2023/11/06 03:36:09;;;;;;;2.47;1.73;;;;;;;9.80;100.00;99105.03;6048814;29;20242;-71
2023/11/06 03:39:30;;;;;;;5.00;1.80;;;;;;;9.75;100.00;99111.91;6039298;29;20255;-71
2023/11/06 03:42:51;;;;;;;3.80;2.30;;;;;;;9.69;100.00;99116.16;6042704;29;20229;-72
2023/11/06 03:46:12;;;;;;;4.80;2.40;;;;;;;9.63;100.00;99119.53;6033687;29;20233;-71
2023/11/06 03:49:34;;;;;;;7.33;4.47;;;;;;;9.62;100.00;99121.38;6041250;29;20550;-72
2023/11/06 03:52:55;;;;;;;4.33;1.67;;;;;;;9.59;100.00;99127.13;6046468;29;20245;-72
2023/11/06 03:56:17;;;;;;;3.57;3.20;;;;;;;9.54;100.00;99129.47;6047077;29;20510;-71
2023/11/06 03:59:40;;;;;;;3.63;2.47;;;;;;;9.49;100.00;99129.16;6052917;29;20222;-70
2023/11/06 04:03:01;;;;;;;2.77;2.40;;;;;;;9.48;100.00;99135.56;6046531;29;20238;-71
2023/11/06 04:06:23;;;;;;;2.83;2.53;;;;;;;9.46;100.00;99151.03;6050800;29;20229;-71
2023/11/06 04:09:44;;;;;;;4.10;2.17;;;;;;;9.43;100.00;99137.91;6048221;29;20273;-71
2023/11/06 04:13:05;;;;;;;4.70;2.50;;;;;;;9.42;100.00;99141.63;6045914;29;20518;-71
2023/11/06 04:16:26;;;;;;;2.90;2.70;;;;;;;9.41;100.00;99171.34;6042591;29;20305;-72
2023/11/06 04:19:47;;;;;;;7.07;3.40;;;;;;;9.41;100.00;99177.59;6058428;29;20237;-72
2023/11/06 04:23:09;;;;;;;2.73;2.53;;;;;;;9.40;100.00;99180.44;6054376;29;20937;-72
2023/11/06 04:26:30;;;;;;;2.50;2.30;;;;;;;9.39;100.00;99182.28;6040836;29;20238;-72
2023/11/06 04:29:52;;;;;;;4.37;2.20;;;;;;;9.35;100.00;99182.78;6041968;29;20298;-71
2023/11/06 04:33:13;;;;;;;3.47;2.10;;;;;;;9.34;100.00;99186.50;6040718;29;20246;-72
2023/11/06 04:36:33;;;;;;;5.40;3.10;;;;;;;9.29;100.00;99205.84;6045957;29;20280;-70
2023/11/06 04:39:58;;;;;;;3.93;2.33;;;;;;;9.33;100.00;99215.25;6042227;29;20234;-72
2023/11/06 04:43:19;;;;;;;7.07;5.00;;;;;;;9.32;100.00;99197.44;6042514;29;20633;-71
2023/11/06 04:46:39;;;;;;;2.90;2.53;;;;;;;9.29;100.00;99213.06;6046303;29;20241;-72
2023/11/06 04:50:00;;;;;;;2.77;2.50;;;;;;;9.28;100.00;99212.22;6046318;29;20571;-72
2023/11/06 04:53:21;;;;;;;3.10;2.80;;;;;;;9.24;100.00;99220.81;6048398;29;20242;-71
2023/11/06 04:56:46;;;;;;;5.33;3.83;;;;;;;9.24;100.00;99215.44;6044539;29;20234;-72
2023/11/06 05:00:09;;;;;;;3.30;3.00;;;;;;;9.25;100.00;99231.38;6062253;29;20226;-71
2023/11/06 05:03:30;;;;;;;5.80;3.27;;;;;;;9.24;100.00;99224.31;6047737;29;20237;-71
2023/11/06 05:06:51;;;;;;;4.83;3.20;;;;;;;9.27;100.00;99237.44;6047414;29;20234;-70
2023/11/06 05:10:12;;;;;;;3.20;2.90;;;;;;;9.27;100.00;99232.06;6041979;29;20245;-72
2023/11/06 05:13:34;;;;;;;2.57;2.37;;;;;;;9.25;100.00;99227.84;6044482;29;20778;-71
2023/11/06 05:16:55;;;;;;;2.77;2.47;;;;;;;9.27;100.00;99250.03;6046266;29;20336;-72
2023/11/06 05:20:17;;;;;;;3.90;2.70;;;;;;;9.30;100.00;99260.47;6045375;29;20608;-70
2023/11/06 05:23:38;;;;;;;5.10;3.30;;;;;;;9.33;100.00;99260.97;6046021;29;20293;-71
2023/11/06 05:27:00;;;;;;;3.67;3.37;;;;;;;9.35;100.00;99263.47;6045810;29;20238;-72
2023/11/06 05:30:22;;;;;;;5.07;4.27;;;;;;;9.34;100.00;99275.25;6041369;29;20711;-72
2023/11/06 05:33:43;;;;;;;6.20;3.60;;;;;;;9.33;100.00;99284.31;6033676;29;20238;-71
2023/11/06 05:37:04;;;;;;;6.53;4.27;;;;;;;9.33;100.00;99290.53;6052938;29;20249;-71
2023/11/06 05:40:25;;;;;;;6.80;4.63;;;;;;;9.34;100.00;99283.31;6051930;29;20234;-72
2023/11/06 05:43:46;;;;;;;5.60;4.77;;;;;;;9.33;100.00;99290.53;6039805;29;20226;-71
2023/11/06 05:47:08;;;;;;;5.03;4.63;;;;;;;9.32;100.00;99296.09;6043053;29;20644;-71
2023/11/06 05:50:30;;;;;;;5.63;5.13;;;;;;;9.30;100.00;99290.03;6041464;29;20285;-72
2023/11/06 05:53:52;;;;;;;4.17;3.83;;;;;;;9.28;100.00;99300.13;6044439;29;20237;-74
2023/11/06 05:57:13;;;;;;;5.67;4.40;;;;;;;9.28;100.00;99325.13;6043110;29;20245;-71
2023/11/06 06:00:34;;;;;;;4.17;3.77;;;;;;;9.30;100.00;99312.41;6037257;29;20242;-72
2023/11/06 06:03:57;;;;;;;7.67;4.73;;;;;;;9.32;100.00;99318.44;6039680;29;20234;-72
2023/11/06 06:07:19;;;;;;;3.83;3.53;;;;;;;9.29;100.00;99316.09;6037159;29;21851;-71
2023/11/06 06:10:40;;;;;;;5.40;4.50;;;;;;;9.33;100.00;99336.25;6023751;29;20261;-71
2023/11/06 06:14:01;;;;;;;5.37;3.87;;;;;;;9.31;100.00;99348.16;6041698;29;20253;-72
2023/11/06 06:17:21;;;;;;;5.90;4.20;;;;;;;9.35;100.00;99360.28;6038936;29;20234;-71
2023/11/06 06:20:44;;;;;;;8.40;4.60;;;;;;;9.38;100.00;99370.72;6036757;29;20324;-71
2023/11/06 06:24:08;;;;;;;5.00;3.67;;;;;;;9.74;100.00;99387.41;6034115;29;20229;-67
2023/11/06 06:27:29;;;;;;;4.93;4.53;;;;;;;9.55;100.00;99384.00;6041645;29;20249;-71
2023/11/06 06:30:50;;;;;;;4.57;3.97;;;;;;;9.50;100.00;99386.38;6044465;29;20238;-70
2023/11/06 06:34:13;;;;;;;3.87;3.43;;;;;;;9.54;100.00;99395.78;6028063;29;20253;-69
2023/11/06 06:37:36;;;;;;;5.33;3.63;;;;;;;9.57;100.00;99406.19;6037719;29;20261;-70
2023/11/06 06:40:57;;;;;;;4.00;3.70;;;;;;;9.60;100.00;99426.56;6038576;29;20667;-69
2023/11/06 06:44:18;;;;;;;4.13;3.67;;;;;;;9.61;100.00;99412.97;6034625;29;20341;-70
2023/11/06 06:47:39;;;;;;;4.73;4.07;;;;;;;9.64;100.00;99433.28;6039434;29;20317;-69
2023/11/06 06:51:00;;;;;;;4.07;3.67;;;;;;;9.67;100.00;99432.97;6037653;29;20226;-69
2023/11/06 06:54:23;;;;;;;3.70;3.40;;;;;;;9.70;100.00;99426.44;6036283;29;20233;-70
2023/11/06 06:57:43;;;;;;;5.70;3.93;;;;;;;9.78;100.00;99437.19;6040361;29;20237;-70
2023/11/06 07:01:06;;;;;;;4.10;3.80;;;;;;;9.77;100.00;99444.41;6039914;29;20245;-71
2023/11/06 07:04:26;;;;;;;5.00;3.27;;;;;;;9.79;100.00;99450.47;6037159;29;20347;-71
2023/11/06 07:07:47;;;;;;;3.20;3.00;;;;;;;9.82;100.00;99452.84;6034521;29;20246;-69
2023/11/06 07:11:10;;;;;;;4.03;3.07;;;;;;;9.85;100.00;99443.56;6038820;29;22093;-70
2023/11/06 07:14:31;;;;;;;4.63;3.50;;;;;;;9.87;100.00;99460.41;6036449;29;20238;-70
2023/11/06 07:17:52;;;;;;;5.90;3.23;;;;;;;9.89;100.00;99467.31;6044958;29;20265;-69
2023/11/06 07:21:13;;;;;;;5.10;3.67;;;;;;;9.93;100.00;99465.16;6043255;29;20229;-70
2023/11/06 07:24:34;;;;;;;3.97;3.67;;;;;;;9.98;100.00;99469.00;6042105;29;20242;-69
2023/11/06 07:27:57;;;;;;;5.43;3.57;;;;;;;9.98;100.00;99473.53;6045672;29;20246;-68
2023/11/06 07:31:18;;;;;;;3.33;3.13;;;;;;;9.99;100.00;99478.75;6029570;29;20234;-71
2023/11/06 07:34:39;;;;;;;4.03;3.30;;;;;;;10.01;100.00;99470.53;6043765;29;20801;-69
2023/11/06 07:38:00;;;;;;;4.07;3.17;;;;;;;10.00;100.00;99477.75;6044555;29;20229;-68
2023/11/06 07:41:21;;;;;;;3.73;3.40;;;;;;;10.01;100.00;99482.13;6046704;29;20245;-69
2023/11/06 07:44:43;;;;;;;5.67;3.67;;;;;;;10.03;100.00;99495.44;6047046;29;20253;-70
2023/11/06 07:48:05;;;;;;;4.93;4.53;;;;;;;10.06;100.00;99495.09;6045099;29;20234;-70
2023/11/06 07:51:26;;;;;;;3.90;3.60;;;;;;;10.12;100.00;99500.69;6045818;29;20233;-72
2023/11/06 07:54:47;;;;;;;3.63;3.30;;;;;;;10.09;100.00;99527.94;6046555;29;20664;-70
2023/11/06 07:58:08;;;;;;;7.20;4.00;;;;;;;10.11;100.00;99514.31;6055239;29;20774;-70
2023/11/06 08:01:30;;;;;;;3.47;3.17;;;;;;;10.09;100.00;99511.78;6041249;29;20604;-71
2023/11/06 08:04:51;;;;;;;5.10;4.60;;;;;;;10.13;100.00;99510.47;6048715;29;20257;-70
2023/11/06 08:08:12;;;;;;;3.93;3.60;;;;;;;10.15;100.00;99519.22;6047898;29;20545;-71
2023/11/06 08:11:35;;;;;;;3.80;3.50;;;;;;;10.20;100.00;99534.88;6044374;29;20238;-68
2023/11/06 08:14:56;;;;;;;6.40;4.73;;;;;;;10.22;100.00;99543.63;6044468;29;20242;-69
2023/11/06 08:18:19;;;;;;;3.90;3.60;;;;;;;10.26;100.00;99535.03;6045650;29;20512;-71
2023/11/06 08:21:40;;;;;;;6.27;3.30;;;;;;;10.26;100.00;99544.97;6045393;29;20241;-69
2023/11/06 08:25:01;;;;;;;3.40;3.10;;;;;;;10.29;100.00;99552.69;6050535;29;20242;-70
2023/11/06 08:28:22;;;;;;;8.40;4.27;;;;;;;10.25;100.00;99548.66;6047330;29;20236;-69
2023/11/06 08:31:43;;;;;;;5.00;3.37;;;;;;;10.26;100.00;99553.06;6048575;29;20824;-71
2023/11/06 08:35:07;;;;;;;4.80;4.27;;;;;;;10.31;100.00;99570.38;6042468;29;20233;-70
2023/11/06 08:38:28;;;;;;;4.93;3.80;;;;;;;10.36;100.00;99573.44;6057016;29;20589;-69
2023/11/06 08:41:49;;;;;;;3.73;3.43;;;;;;;10.33;100.00;99576.44;6045138;29;20234;-71
2023/11/06 08:45:11;;;;;;;4.63;3.67;;;;;;;10.43;100.00;99581.66;6046268;29;20242;-69
2023/11/06 08:48:32;;;;;;;5.20;3.47;;;;;;;10.53;100.00;99584.22;6048610;29;20233;-70
2023/11/06 08:51:55;;;;;;;5.23;3.63;;;;;;;10.47;100.00;99587.59;6047134;29;20237;-69
2023/11/06 08:55:16;;;;;;;4.33;3.97;;;;;;;10.45;100.00;99585.06;6045502;29;20812;-69
2023/11/06 08:58:38;;;;;;;8.17;4.23;;;;;;;10.46;100.00;99584.03;6055113;29;20605;-69
2023/11/06 09:01:58;;;;;;;5.03;4.57;;;;;;;10.43;100.00;99609.47;6048848;29;20474;-73
2023/11/06 09:05:19;;;;;;;2.80;2.60;;;;;;;10.46;100.00;99600.22;6035848;29;20241;-71
2023/11/06 09:08:42;;;;;;;7.10;3.80;;;;;;;10.53;100.00;99612.00;6037982;29;20237;-72
2023/11/06 09:12:03;;;;;;;6.10;4.10;;;;;;;10.55;100.00;99610.00;6048093;29;20241;-73
2023/11/06 09:15:24;;;;;;;4.83;4.23;;;;;;;10.57;100.00;99618.75;6047869;29;20241;-72
2023/11/06 09:18:45;;;;;;;5.40;3.57;;;;;;;10.61;100.00;99630.88;6041727;29;20224;-72
2023/11/06 09:22:06;;;;;;;5.67;3.20;;;;;;;10.59;100.00;99640.13;6052116;29;20241;-73
2023/11/06 09:25:28;;;;;;;4.83;3.80;;;;;;;10.59;100.00;99632.91;6047514;29;20938;-72
2023/11/06 09:28:49;;;;;;;4.73;3.53;;;;;;;10.68;100.00;99639.97;6044749;29;20233;-71
2023/11/06 09:32:10;;;;;;;4.70;4.30;;;;;;;10.70;100.00;99651.41;6044348;29;20237;-72
2023/11/06 09:35:31;;;;;;;5.07;3.97;;;;;;;10.77;100.00;99662.38;6043304;29;20531;-73
2023/11/06 09:38:52;;;;;;;5.40;4.00;;;;;;;10.80;100.00;99662.91;6050196;29;20333;-71
2023/11/06 09:42:15;;;;;;;5.50;3.80;;;;;;;10.85;100.00;99682.09;6041157;29;20313;-71
2023/11/06 09:45:36;;;;;;;4.17;3.67;;;;;;;10.90;100.00;99670.81;6044137;29;20236;-71
2023/11/06 09:49:05;;;;;;;8.10;3.93;;;;;;;10.93;100.00;99676.72;6044369;29;20246;-73
2023/11/06 09:52:27;;;;;;;4.17;3.80;;;;;;;10.99;100.00;99683.31;6044264;29;20221;-73
2023/11/06 09:55:48;;;;;;;4.73;4.10;;;;;;;10.90;100.00;99690.56;6050665;29;20238;-72
2023/11/06 09:59:10;;;;;;;4.57;3.80;;;;;;;10.89;100.00;99696.94;6050446;29;20234;-72
2023/11/06 10:02:31;;;;;;;3.57;3.03;;;;;;;10.92;100.00;99693.06;6045485;29;20317;-72
2023/11/06 10:05:53;;;;;;;5.77;3.33;;;;;;;10.87;100.00;99696.25;6042550;29;21350;-72
2023/11/06 10:09:21;;;;;;;5.17;3.87;;;;;;;10.88;100.00;99705.19;6053799;29;20233;-71
2023/11/06 10:12:43;;;;;;;7.63;3.27;;;;;;;10.91;100.00;99708.41;6038418;29;20242;-71
2023/11/06 10:16:21;;;;;;;4.67;3.23;;;;;;;10.96;100.00;99705.19;6044130;29;20242;-72
2023/11/06 10:19:42;;;;;;;9.03;3.20;;;;;;;11.03;100.00;99720.56;6041415;29;20242;-71
2023/11/06 10:23:04;;;;;;;3.67;3.10;;;;;;;11.07;100.00;99710.28;6046909;29;20250;-71
2023/11/06 10:26:31;;;;;;;5.60;3.67;;;;;;;11.12;100.00;99727.63;6045952;29;20238;-71
2023/11/06 10:29:58;;;;;;;4.17;3.20;;;;;;;11.19;100.00;99715.16;6048910;29;20233;-72
2023/11/06 10:33:23;;;;;;;4.23;2.67;;;;;;;11.19;100.00;99720.56;6042930;29;20245;-72
2023/11/06 10:36:44;;;;;;;19.77;3.30;;;;;;;11.17;100.00;99713.66;6042243;29;20320;-72
2023/11/06 10:40:07;;;;;;;15.53;6.03;;;;;;;11.11;100.00;99725.09;6041653;29;20237;-73
2023/11/06 10:43:29;;;;;;;6.50;3.63;;;;;;;11.11;100.00;99733.19;6044549;29;20254;-71
2023/11/06 10:46:50;;;;;;;4.77;2.67;;;;;;;11.19;100.00;99733.19;6041856;29;20234;-73
2023/11/06 10:50:17;;;;;;;2.70;1.93;;;;;;;11.14;100.00;99731.00;6039765;29;21413;-72
2023/11/06 10:53:39;;;;;;;4.40;3.17;;;;;;;11.15;100.00;99743.50;6046437;29;20230;-70
2023/11/06 10:57:02;;;;;;;4.90;3.73;;;;;;;11.18;100.00;99736.94;6043727;29;20249;-72
2023/11/06 11:00:24;;;;;;;1.70;1.60;;;;;;;11.09;100.00;99748.72;6047923;29;20513;-71
2023/11/06 11:03:45;;;;;;;5.87;2.17;;;;;;;11.43;100.00;99741.28;6047272;29;20237;-72
2023/11/06 11:07:09;;;;;;;3.63;2.03;;;;;;;12.14;100.00;99744.03;6042157;29;20265;-72
2023/11/06 11:10:31;;;;;;;4.33;2.73;;;;;;;11.58;100.00;99739.59;6040480;29;20230;-71
2023/11/06 11:13:52;;;;;;;5.67;2.33;;;;;;;11.39;100.00;99753.44;6044270;29;20234;-71
2023/11/06 11:17:13;;;;;;;2.90;1.37;;;;;;;11.34;100.00;99755.81;6041364;29;20230;-70
2023/11/06 11:20:54;;;;;;;3.00;1.80;;;;;;;11.52;100.00;99750.22;6043642;29;20241;-67
2023/11/06 11:24:45;;;;;;;5.10;1.80;;;;;;;11.50;100.00;99768.44;6040378;29;20261;-70
2023/11/06 11:28:14;;;;;;;2.00;1.50;;;;;;;11.45;100.00;99784.31;6015807;29;20262;-68
2023/11/06 11:31:36;;;;;;;3.43;1.50;;;;;;;11.41;100.00;99766.78;6019876;29;20512;-68
2023/11/06 11:34:57;;;;;;;2.33;1.70;;;;;;;11.31;100.00;99771.47;6017903;29;20553;-69
2023/11/06 11:38:23;;;;;;;6.47;1.50;;;;;;;11.37;100.00;99777.03;6020681;29;20234;-69
2023/11/06 11:42:18;;;;;;;6.80;1.83;;;;;;;11.10;100.00;99794.38;6027127;29;20242;-71
2023/11/06 11:45:40;;;;;;;1.57;1.20;;;;;;;10.89;100.00;99793.19;6020153;29;20242;-70
2023/11/06 11:49:01;;;;;;;2.87;1.60;;;;;;;10.81;100.00;99802.06;6024468;29;20587;-69
2023/11/06 11:52:42;;;;;;;1.83;1.67;;;;;;;10.94;100.00;99805.16;6020386;29;20336;-69
2023/11/06 11:56:03;;;;;;;2.00;1.57;;;;;;;11.02;100.00;99804.31;6016740;29;20238;-71
2023/11/06 11:59:25;;;;;;;4.17;1.50;;;;;;;11.07;100.00;99808.22;6023345;29;20315;-70
2023/11/06 12:02:48;;;;;;;2.20;1.90;;;;;;;11.16;100.00;99812.59;6023619;29;20238;-69
2023/11/06 12:06:09;;;;;;;3.33;1.83;;;;;;;11.19;100.00;99824.91;6022864;29;20238;-68
2023/11/06 12:09:43;;;;;;;3.00;1.50;;;;;;;11.24;100.00;99823.41;6020416;29;20250;-70
2023/11/06 12:13:12;;;;;;;2.43;2.10;;;;;;;11.31;100.00;99811.94;6017200;29;20242;-70
2023/11/06 12:16:46;;;;;;;3.77;3.00;;;;;;;11.31;100.00;99823.59;6023133;29;20905;-72
2023/11/06 12:20:12;;;;;;;5.80;1.93;;;;;;;11.24;100.00;99826.09;6023423;29;21154;-69
2023/11/06 12:23:34;;;;;;;3.50;1.60;;;;;;;11.26;100.00;99832.16;6027198;29;20246;-70
2023/11/06 12:26:57;;;;;;;3.23;2.00;;;;;;;11.28;100.00;99829.31;6022751;29;20333;-69
2023/11/06 12:30:18;;;;;;;7.33;2.10;;;;;;;11.31;100.00;99834.38;6032241;29;20239;-69
2023/11/06 12:33:39;;;;;;;2.67;1.37;;;;;;;11.34;100.00;99825.97;6025055;29;20333;-69
2023/11/06 12:37:03;;;;;;;6.60;2.80;;;;;;;11.35;100.00;99821.41;6021163;29;20251;-73
2023/11/06 12:40:27;;;;;;;3.50;2.23;;;;;;;11.35;100.00;99821.41;6023916;29;20317;-72
2023/11/06 12:43:50;;;;;;;5.57;2.03;;;;;;;11.41;100.00;99831.53;6029078;29;20233;-72
2023/11/06 12:47:13;;;;;;;2.30;1.37;;;;;;;11.58;100.00;99828.66;6020378;29;20242;-71
2023/11/06 12:50:34;;;;;;;3.10;2.73;;;;;;;11.55;100.00;99828.16;6022254;29;20242;-69
2023/11/06 12:53:56;;;;;;;5.33;1.83;;;;;;;11.63;100.00;99820.06;6025374;29;20230;-70
2023/11/06 12:57:18;;;;;;;3.37;2.20;;;;;;;11.52;100.00;99821.25;6029115;29;21508;-67
2023/11/06 13:00:42;;;;;;;5.93;1.60;;;;;;;11.77;100.00;99822.97;6021908;29;20246;-68
2023/11/06 13:04:06;;;;;;;1.90;1.67;;;;;;;11.54;100.00;99824.63;6021945;29;20242;-67
2023/11/06 13:07:27;;;;;;;5.57;2.00;;;;;;;11.55;100.00;99825.47;6026304;29;20253;-68
2023/11/06 13:10:49;;;;;;;5.20;2.40;;;;;;;11.93;100.00;99824.81;6025067;29;20237;-69
2023/11/06 13:14:12;;;;;;;2.17;1.20;;;;;;;11.93;100.00;99828.34;6029660;29;20234;-68
2023/11/06 13:17:33;;;;;;;4.80;2.07;;;;;;;11.80;100.00;99836.13;6029668;29;20233;-69
2023/11/06 13:20:54;;;;;;;6.07;1.70;;;;;;;11.88;100.00;99836.13;6027809;29;20238;-67
2023/11/06 13:24:15;;;;;;;3.53;1.97;;;;;;;11.96;100.00;99836.13;6025187;29;20231;-72
2023/11/06 13:27:38;;;;;;;7.23;2.13;;;;;;;11.78;100.00;99842.72;6023124;29;20242;-69
2023/11/06 13:30:59;;;;;;;4.73;1.53;;;;;;;11.69;100.00;99841.03;6024676;29;20238;-69
2023/11/06 13:34:21;;;;;;;2.67;1.70;;;;;;;11.57;100.00;99842.34;6022448;29;20257;-68
2023/11/06 13:37:42;;;;;;;6.07;2.10;;;;;;;11.53;100.00;99839.13;6029538;29;20652;-69
2023/11/06 13:41:05;;;;;;;5.67;2.50;;;;;;;11.48;100.00;99851.44;6017309;29;20242;-68
2023/11/06 13:44:28;;;;;;;1.90;1.27;;;;;;;11.51;100.00;99857.34;6021981;29;20294;-73
2023/11/06 13:47:52;;;;;;;3.47;1.83;;;;;;;11.53;100.00;99863.44;6026058;29;20230;-68
2023/11/06 13:51:16;;;;;;;2.30;1.40;;;;;;;11.47;100.00;99860.56;6026921;29;20242;-71
2023/11/06 13:54:38;;;;;;;2.70;2.00;;;;;;;11.48;100.00;99857.69;6022594;29;20650;-70
2023/11/06 13:57:59;;;;;;;4.00;1.80;;;;;;;11.52;100.00;99855.47;6021812;29;20246;-67
2023/11/06 14:01:31;;;;;;;3.40;2.40;;;;;;;11.49;100.00;99856.69;6022350;29;20516;-69
2023/11/06 14:04:56;;;;;;;4.50;2.07;;;;;;;11.46;100.00;99867.78;6030759;29;20328;-67
2023/11/06 14:08:19;;;;;;;3.00;1.60;;;;;;;11.45;100.00;99865.28;6030533;29;20617;-66
2023/11/06 14:11:39;;;;;;;4.60;1.93;;;;;;;11.44;100.00;99866.28;6030848;29;20235;-68
2023/11/06 14:15:01;;;;;;;3.27;1.40;;;;;;;11.46;100.00;99861.53;6028384;29;20629;-68
2023/11/06 14:18:26;;;;;;;4.83;1.40;;;;;;;11.45;100.00;99873.38;6027019;29;20338;-69
2023/11/06 14:21:47;;;;;;;3.07;1.70;;;;;;;11.45;100.00;99862.56;6039016;29;20247;-69
2023/11/06 14:25:08;;;;;;;5.40;1.47;;;;;;;11.44;100.00;99861.72;6030798;29;20517;-69
2023/11/06 14:28:30;;;;;;;2.43;1.67;;;;;;;11.44;100.00;99866.28;6029260;29;20238;-70
2023/11/06 14:31:51;;;;;;;4.90;2.77;;;;;;;11.50;100.00;99866.44;6031336;29;20729;-68
2023/11/06 14:35:16;;;;;;;2.47;1.77;;;;;;;11.50;100.00;99871.84;6027119;29;20253;-68
2023/11/06 14:38:37;;;;;;;3.13;2.00;;;;;;;11.58;100.00;99869.16;6028449;29;20329;-69
2023/11/06 14:41:58;;;;;;;2.27;1.70;;;;;;;11.57;100.00;99872.88;6031572;29;22018;-69
2023/11/06 14:45:18;;;;;;;7.07;1.70;;;;;;;11.45;100.00;99874.22;6023792;29;20227;-67
2023/11/06 14:48:42;;;;;;;5.13;2.03;;;;;;;11.40;100.00;99881.09;6029641;29;20274;-67
2023/11/06 14:52:04;;;;;;;6.53;1.83;;;;;;;11.44;100.00;99880.63;6021413;29;20231;-68
2023/11/06 14:55:27;;;;;;;4.07;2.27;;;;;;;11.30;100.00;99881.25;6031196;29;20230;-69
2023/11/06 14:58:48;;;;;;;1.80;1.63;;;;;;;11.30;100.00;99891.22;6018744;29;20317;-67
2023/11/06 15:02:10;;;;;;;4.57;2.53;;;;;;;11.20;100.00;99883.28;6021892;29;20241;-72
2023/11/06 15:05:31;;;;;;;2.40;1.40;;;;;;;11.15;100.00;99894.56;6020546;29;20234;-68
2023/11/06 15:08:54;;;;;;;5.47;2.10;;;;;;;11.09;100.00;99886.25;6021764;29;20261;-68
2023/11/06 15:12:16;;;;;;;5.00;2.23;;;;;;;11.02;100.00;99887.91;6018952;29;20257;-70
2023/11/06 15:15:37;;;;;;;6.43;1.83;;;;;;;10.94;100.00;99896.81;6019840;29;20235;-68
2023/11/06 15:18:58;;;;;;;5.60;1.67;;;;;;;10.93;100.00;99897.81;6031498;29;20250;-68
2023/11/06 15:22:20;;;;;;;3.20;1.50;;;;;;;10.96;100.00;99902.06;6025262;29;20239;-69
2023/11/06 15:25:44;;;;;;;2.60;1.70;;;;;;;10.84;100.00;99909.59;6029001;29;20234;-68
2023/11/06 15:29:05;;;;;;;7.33;2.23;;;;;;;10.72;100.00;99905.47;6031100;29;20234;-68
2023/11/06 15:32:26;;;;;;;4.90;1.40;;;;;;;10.69;100.00;99913.91;6025228;29;20258;-68
2023/11/06 15:35:46;;;;;;;3.03;1.97;;;;;;;10.69;100.00;99907.66;6029954;29;20238;-69
2023/11/06 15:39:07;;;;;;;3.27;2.43;;;;;;;10.74;100.00;99905.34;6029843;29;20325;-68
2023/11/06 15:42:30;;;;;;;5.93;2.40;;;;;;;10.73;100.00;99909.88;6032881;29;20247;-68